Time;durP1;ratioP1;P1;durP2;ratioP2;P2;SDS_P1;SDS_P2;PMS_P1;PMS_P2;Temp;Humidity;BMP_temperature;BMP_pressure;BME280_temperature;BME280_humidity;BME280_pressure;Samples;Min_cycle;Max_cycle;Signal;HPM_P1;HPM_P2
2022/09/24 00:01:12;;;;;;;;;;;7.60;99.90;;;;;;4143511;28;19963;-62
2022/09/24 00:03:13;;;;;;;;;;;7.50;99.90;;;;;;4144578;28;19917;-61
2022/09/24 00:05:15;;;;;;;;;;;7.50;99.90;;;;;;4144948;28;20282;-61
2022/09/24 00:07:16;;;;;;;;;;;7.50;99.90;;;;;;4142864;28;19914;-61
2022/09/24 00:09:20;;;;;;;;;;;7.50;99.90;;;;;;4130644;28;19995;-61
2022/09/24 00:11:22;;;;;;;;;;;7.50;99.90;;;;;;4138966;28;19913;-61
2022/09/24 00:13:23;;;;;;;;;;;7.50;99.90;;;;;;4145412;28;19913;-61
2022/09/24 00:15:24;;;;;;;;;;;7.40;99.90;;;;;;4141354;28;19941;-61
2022/09/24 00:17:25;;;;;;;;;;;7.40;99.90;;;;;;4135807;28;20341;-61
2022/09/24 00:19:26;;;;;;;;;;;7.30;99.90;;;;;;4128873;28;19922;-62
2022/09/24 00:21:28;;;;;;;;;;;7.30;99.90;;;;;;4129307;28;19956;-62
2022/09/24 00:23:29;;;;;;;;;;;7.30;99.90;;;;;;4128461;28;19909;-62
2022/09/24 00:27:50;;;;;;;;;;;7.20;99.90;;;;;;4128150;28;20325;-61
2022/09/24 00:29:51;;;;;;;;;;;7.20;99.90;;;;;;4129317;28;19971;-62
2022/09/24 00:31:52;;;;;;;;;;;7.10;99.90;;;;;;4132308;28;19944;-61
2022/09/24 00:33:53;;;;;;;;;;;7.10;99.90;;;;;;4147765;28;19910;-62
2022/09/24 00:35:59;;;;;;;;;;;7.10;99.90;;;;;;4131733;28;19910;-61
2022/09/24 00:38:00;;;;;;;;;;;7.10;99.90;;;;;;4131501;28;20393;-62
2022/09/24 00:40:01;;;;;;;;;;;7.00;99.90;;;;;;4131513;28;19968;-61
2022/09/24 00:42:02;;;;;;;;;;;7.00;99.90;;;;;;4136288;28;19987;-61
2022/09/24 00:44:21;;;;;;;;;;;7.00;99.90;;;;;;4146204;28;19920;-61
2022/09/24 00:46:38;;;;;;;;;;;7.00;99.90;;;;;;4146998;28;19987;-61
2022/09/24 00:48:40;;;;;;;;;;;6.90;99.90;;;;;;4142179;28;19917;-61
2022/09/24 00:50:41;;;;;;;;;;;6.90;99.90;;;;;;4131285;28;19906;-62
2022/09/24 00:52:48;;;;;;;;;;;6.80;99.90;;;;;;4131564;28;19979;-62
2022/09/24 00:54:49;;;;;;;;;;;6.80;99.90;;;;;;4130762;28;19909;-61
2022/09/24 00:56:51;;;;;;;;;;;6.70;99.90;;;;;;4131817;28;19952;-62
2022/09/24 00:58:53;;;;;;;;;;;6.70;99.90;;;;;;4133112;28;19914;-61
2022/09/24 01:00:57;;;;;;;;;;;6.70;99.90;;;;;;4147944;28;19968;-61
2022/09/24 01:03:06;;;;;;;;;;;6.60;99.90;;;;;;4146460;28;19944;-62
2022/09/24 01:05:09;;;;;;;;;;;6.60;99.90;;;;;;4147618;28;20448;-62
2022/09/24 01:07:10;;;;;;;;;;;6.60;99.90;;;;;;4144773;28;20019;-61
2022/09/24 01:09:11;;;;;;;;;;;6.60;99.90;;;;;;4131761;28;19913;-62
2022/09/24 01:11:18;;;;;;;;;;;6.50;99.90;;;;;;4143648;28;19913;-61
2022/09/24 01:13:19;;;;;;;;;;;6.50;99.90;;;;;;4133620;28;20207;-62
2022/09/24 01:15:27;;;;;;;;;;;6.50;99.90;;;;;;4131393;28;20012;-62
2022/09/24 01:17:46;;;;;;;;;;;6.50;99.90;;;;;;4131621;28;20297;-61
2022/09/24 01:19:53;;;;;;;;;;;6.50;99.90;;;;;;4137654;28;19922;-61
2022/09/24 01:22:01;;;;;;;;;;;6.50;99.90;;;;;;4146972;28;19914;-62
2022/09/24 01:24:27;;;;;;;;;;;6.50;99.90;;;;;;4146651;28;19913;-61
2022/09/24 01:26:47;;;;;;;;;;;6.60;99.90;;;;;;4147315;28;20322;-63
2022/09/24 01:28:51;;;;;;;;;;;6.60;99.90;;;;;;4146473;28;20353;-61
2022/09/24 01:30:55;;;;;;;;;;;6.60;99.90;;;;;;4147242;28;19913;-61
2022/09/24 01:33:03;;;;;;;;;;;6.60;99.90;;;;;;4145920;28;19913;-61
2022/09/24 01:35:04;;;;;;;;;;;6.60;99.90;;;;;;4147066;28;20447;-61
2022/09/24 01:37:05;;;;;;;;;;;6.70;99.90;;;;;;4145923;28;19999;-62
2022/09/24 01:39:07;;;;;;;;;;;6.70;99.90;;;;;;4147047;28;19914;-62
2022/09/24 01:41:09;;;;;;;;;;;6.60;99.90;;;;;;4146537;28;19958;-63
2022/09/24 01:43:10;;;;;;;;;;;6.60;99.90;;;;;;4146322;28;19913;-62
2022/09/24 01:45:12;;;;;;;;;;;6.60;99.90;;;;;;4144715;28;20333;-64
2022/09/24 01:47:17;;;;;;;;;;;6.60;99.90;;;;;;4160571;28;20435;-62
2022/09/24 01:49:18;;;;;;;;;;;6.60;99.90;;;;;;4146096;28;19959;-63
2022/09/24 01:51:22;;;;;;;;;;;6.60;99.90;;;;;;4144386;28;19913;-62
2022/09/24 01:53:25;;;;;;;;;;;6.50;99.90;;;;;;4138439;28;19940;-62
2022/09/24 01:55:29;;;;;;;;;;;6.50;99.90;;;;;;4138328;28;20327;-64
2022/09/24 01:57:34;;;;;;;;;;;6.50;99.90;;;;;;4145371;28;19952;-63
2022/09/24 01:59:38;;;;;;;;;;;6.50;99.90;;;;;;4129598;28;19951;-63
2022/09/24 02:02:00;;;;;;;;;;;6.50;99.90;;;;;;4130762;28;19965;-63
2022/09/24 02:04:05;;;;;;;;;;;6.50;99.90;;;;;;4128920;28;19917;-64
2022/09/24 02:06:18;;;;;;;;;;;6.50;99.90;;;;;;4130013;28;19910;-62
2022/09/24 02:08:21;;;;;;;;;;;6.40;99.90;;;;;;4130733;28;20353;-63
2022/09/24 02:10:21;;;;;;;;;;;6.40;99.90;;;;;;4133637;28;19909;-63
2022/09/24 02:12:28;;;;;;;;;;;6.40;99.90;;;;;;4145831;28;19932;-63
2022/09/24 02:14:30;;;;;;;;;;;6.40;99.90;;;;;;4145466;28;19972;-62
2022/09/24 02:16:36;;;;;;;;;;;6.40;99.90;;;;;;4143989;28;19925;-63
2022/09/24 02:18:43;;;;;;;;;;;6.40;99.90;;;;;;4144860;28;19909;-62
2022/09/24 02:20:45;;;;;;;;;;;6.30;99.90;;;;;;4137332;28;19917;-63
2022/09/24 02:22:48;;;;;;;;;;;6.30;99.90;;;;;;4142364;28;19914;-63
2022/09/24 02:24:51;;;;;;;;;;;6.30;99.90;;;;;;4129291;28;19905;-62
2022/09/24 02:26:53;;;;;;;;;;;6.20;99.90;;;;;;4142788;28;19943;-62
2022/09/24 02:28:54;;;;;;;;;;;6.20;99.90;;;;;;4145155;28;19964;-63
2022/09/24 02:30:58;;;;;;;;;;;6.20;99.90;;;;;;4144907;28;20008;-62
2022/09/24 02:32:59;;;;;;;;;;;6.20;99.90;;;;;;4144972;28;20325;-63
2022/09/24 02:35:02;;;;;;;;;;;6.20;99.90;;;;;;4145935;28;19913;-63
2022/09/24 02:37:10;;;;;;;;;;;6.20;99.90;;;;;;4145497;28;19905;-64
2022/09/24 02:39:11;;;;;;;;;;;6.10;99.90;;;;;;4146020;28;19914;-63
2022/09/24 02:41:12;;;;;;;;;;;6.10;99.90;;;;;;4176649;28;19920;-63
2022/09/24 02:43:13;;;;;;;;;;;6.10;99.90;;;;;;4144180;28;19913;-62
2022/09/24 02:45:14;;;;;;;;;;;6.10;99.90;;;;;;4138908;28;19916;-63
2022/09/24 02:47:15;;;;;;;;;;;6.10;99.90;;;;;;4129247;28;19906;-62
2022/09/24 02:49:16;;;;;;;;;;;6.10;99.90;;;;;;4129705;28;19916;-62
2022/09/24 02:51:17;;;;;;;;;;;6.10;99.90;;;;;;4129005;28;19956;-63
2022/09/24 02:53:18;;;;;;;;;;;6.10;99.90;;;;;;4143611;28;19909;-62
2022/09/24 02:55:20;;;;;;;;;;;6.10;99.90;;;;;;4144558;28;19936;-62
2022/09/24 02:57:21;;;;;;;;;;;6.10;99.90;;;;;;4145902;28;19913;-63
2022/09/24 02:59:22;;;;;;;;;;;6.10;99.90;;;;;;4145004;28;20519;-62
2022/09/24 03:01:23;;;;;;;;;;;6.10;99.90;;;;;;4142514;28;19921;-63
2022/09/24 03:03:24;;;;;;;;;;;6.10;99.90;;;;;;4128508;28;20340;-63
2022/09/24 03:05:25;;;;;;;;;;;6.10;99.90;;;;;;4130873;28;19968;-63
2022/09/24 03:07:26;;;;;;;;;;;6.10;99.90;;;;;;4131271;28;20370;-63
2022/09/24 03:09:27;;;;;;;;;;;6.00;99.90;;;;;;4145669;28;19952;-63
2022/09/24 03:11:30;;;;;;;;;;;6.00;99.90;;;;;;4131349;28;19905;-63
2022/09/24 03:13:31;;;;;;;;;;;6.00;99.90;;;;;;4136345;28;19913;-63
2022/09/24 03:15:32;;;;;;;;;;;6.00;99.90;;;;;;4145131;28;19936;-62
2022/09/24 03:17:32;;;;;;;;;;;6.00;99.90;;;;;;4144962;28;19917;-63
2022/09/24 03:19:33;;;;;;;;;;;5.90;99.90;;;;;;4145585;28;20365;-63
2022/09/24 03:21:34;;;;;;;;;;;6.00;99.90;;;;;;4129507;28;19917;-62
2022/09/24 03:23:36;;;;;;;;;;;5.90;99.90;;;;;;4132893;28;19928;-63
2022/09/24 03:25:37;;;;;;;;;;;5.90;99.90;;;;;;4129644;28;19909;-62
2022/09/24 03:27:37;;;;;;;;;;;5.90;99.90;;;;;;4130940;28;19916;-63
2022/09/24 03:31:58;;;;;;;;;;;5.90;99.90;;;;;;4145884;28;19964;-63
2022/09/24 03:33:59;;;;;;;;;;;5.90;99.90;;;;;;4144636;28;20342;-62
2022/09/24 03:36:05;;;;;;;;;;;5.90;99.90;;;;;;4132881;28;19905;-63
2022/09/24 03:38:05;;;;;;;;;;;5.90;99.90;;;;;;4134376;28;20313;-61
2022/09/24 03:40:07;;;;;;;;;;;5.90;99.90;;;;;;4145575;28;19910;-62
2022/09/24 03:42:08;;;;;;;;;;;5.90;99.90;;;;;;4143282;28;19964;-62
2022/09/24 03:44:09;;;;;;;;;;;5.90;99.90;;;;;;4134976;28;19905;-61
2022/09/24 03:46:11;;;;;;;;;;;6.00;99.90;;;;;;4140889;28;19960;-63
2022/09/24 03:48:12;;;;;;;;;;;5.90;99.90;;;;;;4144852;28;19956;-63
2022/09/24 03:50:13;;;;;;;;;;;5.90;99.90;;;;;;4140070;28;19909;-62
2022/09/24 03:52:14;;;;;;;;;;;5.90;99.90;;;;;;4137727;28;20453;-63
2022/09/24 03:54:15;;;;;;;;;;;6.00;99.90;;;;;;4145151;28;20356;-62
2022/09/24 03:56:16;;;;;;;;;;;6.00;99.90;;;;;;4134085;28;20345;-64
2022/09/24 03:58:17;;;;;;;;;;;6.00;99.90;;;;;;4141945;28;19924;-62
2022/09/24 04:00:18;;;;;;;;;;;6.00;99.90;;;;;;4141884;28;19917;-63
2022/09/24 04:02:19;;;;;;;;;;;6.00;99.90;;;;;;4132078;28;19941;-62
2022/09/24 04:04:20;;;;;;;;;;;6.00;99.90;;;;;;4128172;28;20354;-62
2022/09/24 04:06:20;;;;;;;;;;;6.00;99.90;;;;;;4130422;28;19966;-62
2022/09/24 04:08:22;;;;;;;;;;;6.00;99.90;;;;;;4140057;28;19979;-62
2022/09/24 04:10:23;;;;;;;;;;;6.00;99.90;;;;;;4145536;28;19963;-62
2022/09/24 04:12:24;;;;;;;;;;;6.00;99.90;;;;;;4131181;28;20373;-62
2022/09/24 04:14:25;;;;;;;;;;;6.00;99.90;;;;;;4139306;28;19920;-61
2022/09/24 04:16:26;;;;;;;;;;;6.00;99.90;;;;;;4147331;28;20366;-63
2022/09/24 04:18:27;;;;;;;;;;;6.10;99.90;;;;;;4146032;28;19917;-63
2022/09/24 04:20:28;;;;;;;;;;;6.10;99.90;;;;;;4132271;28;19922;-62
2022/09/24 04:22:29;;;;;;;;;;;6.10;99.90;;;;;;4132558;28;21414;-63
2022/09/24 04:24:30;;;;;;;;;;;6.00;99.90;;;;;;4131993;28;19909;-62
2022/09/24 04:26:31;;;;;;;;;;;6.10;99.90;;;;;;4131992;28;19919;-64
2022/09/24 04:28:32;;;;;;;;;;;6.00;99.90;;;;;;4131878;28;19906;-62
2022/09/24 04:30:33;;;;;;;;;;;6.10;99.90;;;;;;4134943;28;19952;-62
2022/09/24 04:32:34;;;;;;;;;;;6.10;99.90;;;;;;4131767;28;19980;-63
2022/09/24 04:34:35;;;;;;;;;;;6.30;99.90;;;;;;4130826;28;19910;-63
2022/09/24 04:36:36;;;;;;;;;;;6.60;99.90;;;;;;4131998;28;20270;-63
2022/09/24 04:38:37;;;;;;;;;;;6.80;99.90;;;;;;4140572;28;19910;-66
2022/09/24 04:40:38;;;;;;;;;;;7.10;99.90;;;;;;4162230;28;19909;-64
2022/09/24 04:42:40;;;;;;;;;;;7.20;99.90;;;;;;4163424;28;19979;-63
2022/09/24 04:44:40;;;;;;;;;;;7.50;99.90;;;;;;4135147;28;19968;-62
2022/09/24 04:46:41;;;;;;;;;;;7.70;99.90;;;;;;4132539;28;20370;-62
2022/09/24 04:48:42;;;;;;;;;;;8.00;99.90;;;;;;4142265;28;19913;-60
2022/09/24 04:50:44;;;;;;;;;;;8.30;99.90;;;;;;4146978;28;20381;-63
2022/09/24 04:52:45;;;;;;;;;;;8.60;99.90;;;;;;4145841;28;19913;-64
2022/09/24 04:54:46;;;;;;;;;;;9.00;99.90;;;;;;4147300;28;19916;-62
2022/09/24 04:56:47;;;;;;;;;;;9.40;99.90;;;;;;4144085;28;19913;-63
2022/09/24 04:58:50;;;;;;;;;;;9.80;99.90;;;;;;4138988;28;20262;-63
2022/09/24 05:00:52;;;;;;;;;;;10.20;99.90;;;;;;4129857;28;19922;-63
2022/09/24 05:02:57;;;;;;;;;;;10.70;99.90;;;;;;4131220;28;20004;-61
2022/09/24 05:04:58;;;;;;;;;;;11.10;99.90;;;;;;4130727;28;20354;-63
2022/09/24 05:06:59;;;;;;;;;;;11.50;99.90;;;;;;4132959;28;19956;-63
2022/09/24 05:09:00;;;;;;;;;;;11.80;99.90;;;;;;4138208;28;19910;-62
2022/09/24 05:11:01;;;;;;;;;;;11.90;99.90;;;;;;4132746;28;20357;-62
2022/09/24 05:13:02;;;;;;;;;;;11.80;99.90;;;;;;4137488;28;19919;-63
2022/09/24 05:15:03;;;;;;;;;;;11.70;99.90;;;;;;4153607;28;19920;-63
2022/09/24 05:17:04;;;;;;;;;;;11.50;99.90;;;;;;4162479;28;20308;-63
2022/09/24 05:19:05;;;;;;;;;;;11.20;99.90;;;;;;4155999;28;19933;-66
2022/09/24 05:21:06;;;;;;;;;;;10.70;99.90;;;;;;4145095;28;19917;-64
2022/09/24 05:23:07;;;;;;;;;;;10.50;99.90;;;;;;4130190;28;19945;-62
2022/09/24 05:25:08;;;;;;;;;;;10.40;99.90;;;;;;4130808;28;20260;-63
2022/09/24 05:27:09;;;;;;;;;;;10.60;99.90;;;;;;4129982;28;19960;-64
2022/09/24 05:29:10;;;;;;;;;;;10.80;99.90;;;;;;4130990;28;19945;-62
2022/09/24 05:31:11;;;;;;;;;;;11.30;99.90;;;;;;4132101;28;19917;-63
2022/09/24 05:33:12;;;;;;;;;;;11.90;99.90;;;;;;4137585;28;20452;-63
2022/09/24 05:35:13;;;;;;;;;;;12.10;99.90;;;;;;4145773;28;19967;-61
2022/09/24 05:37:14;;;;;;;;;;;12.40;99.90;;;;;;4135795;28;19910;-62
2022/09/24 05:39:15;;;;;;;;;;;12.90;99.90;;;;;;4139092;28;20374;-64
2022/09/24 05:41:16;;;;;;;;;;;13.20;99.90;;;;;;4147407;28;19913;-64
2022/09/24 05:43:18;;;;;;;;;;;13.60;99.90;;;;;;4144078;28;19909;-63
2022/09/24 05:45:19;;;;;;;;;;;13.90;99.90;;;;;;4145965;28;19906;-65
2022/09/24 05:47:20;;;;;;;;;;;14.40;99.90;;;;;;4145811;28;19916;-63
2022/09/24 05:49:20;;;;;;;;;;;15.00;99.90;;;;;;4144386;28;20266;-64
2022/09/24 05:51:21;;;;;;;;;;;15.20;99.90;;;;;;4146186;28;19913;-62
2022/09/24 05:53:23;;;;;;;;;;;15.50;99.90;;;;;;4145953;28;19917;-62
2022/09/24 05:55:24;;;;;;;;;;;15.60;99.20;;;;;;4146518;28;19906;-62
2022/09/24 05:57:25;;;;;;;;;;;15.80;99.00;;;;;;4136822;28;20389;-62
2022/09/24 05:59:25;;;;;;;;;;;16.10;98.60;;;;;;4130644;28;19983;-64
2022/09/24 06:01:28;;;;;;;;;;;16.40;97.80;;;;;;4139364;28;19937;-63
2022/09/24 06:03:30;;;;;;;;;;;16.60;97.20;;;;;;4146503;28;20000;-63
2022/09/24 06:05:32;;;;;;;;;;;16.80;97.30;;;;;;4145020;28;19910;-62
2022/09/24 06:07:33;;;;;;;;;;;17.10;96.90;;;;;;4132283;28;19909;-62
2022/09/24 06:09:34;;;;;;;;;;;16.80;96.30;;;;;;4129374;28;19914;-62
2022/09/24 06:11:35;;;;;;;;;;;16.50;96.50;;;;;;4130769;28;19960;-64
2022/09/24 06:13:36;;;;;;;;;;;16.60;96.70;;;;;;4129111;28;19969;-64
2022/09/24 06:15:37;;;;;;;;;;;17.00;96.70;;;;;;4134369;28;20320;-63
2022/09/24 06:17:38;;;;;;;;;;;17.30;96.20;;;;;;4144114;28;19951;-64
2022/09/24 06:19:39;;;;;;;;;;;17.40;96.80;;;;;;4161645;28;19975;-64
2022/09/24 06:21:40;;;;;;;;;;;17.60;96.60;;;;;;4162045;28;19923;-62
2022/09/24 06:23:41;;;;;;;;;;;17.70;95.00;;;;;;4162064;28;20421;-65
2022/09/24 06:25:42;;;;;;;;;;;17.70;94.80;;;;;;4150134;28;20012;-62
2022/09/24 06:27:43;;;;;;;;;;;17.90;94.70;;;;;;4129137;28;19956;-63
2022/09/24 06:29:44;;;;;;;;;;;18.10;94.20;;;;;;4129538;28;19909;-61
2022/09/24 06:31:45;;;;;;;;;;;18.50;93.80;;;;;;4130591;28;20025;-62
2022/09/24 06:33:46;;;;;;;;;;;18.60;93.50;;;;;;4141848;28;19936;-61
2022/09/24 06:35:47;;;;;;;;;;;18.20;93.60;;;;;;4137714;28;19909;-62
2022/09/24 06:37:51;;;;;;;;;;;18.10;94.50;;;;;;4129902;28;19913;-63
2022/09/24 06:39:52;;;;;;;;;;;18.20;93.60;;;;;;4128869;28;19913;-62
2022/09/24 06:41:53;;;;;;;;;;;18.00;93.50;;;;;;4129105;28;19913;-61
2022/09/24 06:43:54;;;;;;;;;;;17.70;93.10;;;;;;4137080;28;20008;-61
2022/09/24 06:45:55;;;;;;;;;;;17.30;93.20;;;;;;4144675;28;20361;-62
2022/09/24 06:47:57;;;;;;;;;;;17.10;93.70;;;;;;4136815;28;19914;-62
2022/09/24 06:49:58;;;;;;;;;;;17.00;94.10;;;;;;4145110;28;20320;-62
2022/09/24 06:51:59;;;;;;;;;;;17.10;94.20;;;;;;4144417;28;19912;-61
2022/09/24 06:54:00;;;;;;;;;;;17.20;94.70;;;;;;4144022;28;20457;-61
2022/09/24 06:56:02;;;;;;;;;;;17.00;94.40;;;;;;4145183;28;19909;-61
2022/09/24 06:58:07;;;;;;;;;;;17.00;94.60;;;;;;4144440;28;19910;-62
2022/09/24 07:00:09;;;;;;;;;;;16.90;96.40;;;;;;4145205;28;19917;-61
2022/09/24 07:02:10;;;;;;;;;;;17.00;94.60;;;;;;4143961;28;19987;-62
2022/09/24 07:04:11;;;;;;;;;;;17.10;96.90;;;;;;4145078;28;20427;-62
2022/09/24 07:06:12;;;;;;;;;;;17.40;93.90;;;;;;4144171;28;19917;-61
2022/09/24 07:08:13;;;;;;;;;;;17.60;94.00;;;;;;4143666;28;19905;-62
2022/09/24 07:10:15;;;;;;;;;;;17.90;93.60;;;;;;4144056;28;20357;-63
2022/09/24 07:12:16;;;;;;;;;;;18.00;92.70;;;;;;4145475;28;19909;-63
2022/09/24 07:14:17;;;;;;;;;;;17.80;93.30;;;;;;4144203;28;19964;-62
2022/09/24 07:16:18;;;;;;;;;;;17.90;93.10;;;;;;4145320;28;19963;-61
2022/09/24 07:18:19;;;;;;;;;;;17.50;93.30;;;;;;4143898;28;20331;-61
2022/09/24 07:20:20;;;;;;;;;;;17.30;93.50;;;;;;4143078;28;19945;-63
2022/09/24 07:22:21;;;;;;;;;;;17.40;93.70;;;;;;4144687;28;19914;-62
2022/09/24 07:24:22;;;;;;;;;;;17.70;93.50;;;;;;4144563;28;19979;-62
2022/09/24 07:26:23;;;;;;;;;;;17.70;93.00;;;;;;4144635;28;20328;-61
2022/09/24 07:28:24;;;;;;;;;;;17.50;93.00;;;;;;4144826;28;19905;-61
2022/09/24 07:30:25;;;;;;;;;;;17.30;93.60;;;;;;4145351;28;19959;-62
2022/09/24 07:32:26;;;;;;;;;;;17.30;93.90;;;;;;4144247;28;19931;-61
2022/09/24 07:34:27;;;;;;;;;;;17.50;93.60;;;;;;4145426;28;19912;-61
2022/09/24 07:36:30;;;;;;;;;;;17.30;93.30;;;;;;4144199;28;19906;-61
2022/09/24 07:38:31;;;;;;;;;;;17.30;93.70;;;;;;4143528;28;20021;-62
2022/09/24 07:40:32;;;;;;;;;;;17.40;93.50;;;;;;4144303;28;20316;-62
2022/09/24 07:42:33;;;;;;;;;;;17.50;93.30;;;;;;4148907;28;19978;-61
2022/09/24 07:44:35;;;;;;;;;;;17.70;93.60;;;;;;4147728;28;20690;-61
2022/09/24 07:46:36;;;;;;;;;;;17.80;94.10;;;;;;4148640;28;20361;-62
2022/09/24 07:48:37;;;;;;;;;;;18.00;92.90;;;;;;4147204;28;19905;-61
2022/09/24 07:50:38;;;;;;;;;;;18.10;92.50;;;;;;4148397;28;20324;-61
2022/09/24 07:52:39;;;;;;;;;;;18.10;93.70;;;;;;4147849;28;19905;-61
2022/09/24 07:54:40;;;;;;;;;;;18.00;92.50;;;;;;4147765;28;19968;-61
2022/09/24 07:56:41;;;;;;;;;;;17.60;94.20;;;;;;4146401;28;19996;-62
2022/09/24 07:58:42;;;;;;;;;;;17.10;93.50;;;;;;4147138;28;19905;-62
2022/09/24 08:00:43;;;;;;;;;;;16.50;93.70;;;;;;4147989;28;19975;-61
2022/09/24 08:02:45;;;;;;;;;;;16.10;94.40;;;;;;4147308;28;19905;-62
2022/09/24 08:04:47;;;;;;;;;;;15.90;94.80;;;;;;4148289;28;20349;-62
2022/09/24 08:06:48;;;;;;;;;;;15.70;95.90;;;;;;4145715;28;19952;-61
2022/09/24 08:08:49;;;;;;;;;;;15.50;96.30;;;;;;4148399;28;19951;-63
2022/09/24 08:10:50;;;;;;;;;;;15.50;96.50;;;;;;4147244;28;19959;-64
2022/09/24 08:12:52;;;;;;;;;;;15.20;96.50;;;;;;4147124;28;19906;-63
2022/09/24 08:14:53;;;;;;;;;;;15.10;97.00;;;;;;4147200;28;19963;-64
2022/09/24 08:16:54;;;;;;;;;;;14.90;97.60;;;;;;4147864;28;20345;-62
2022/09/24 08:18:55;;;;;;;;;;;14.70;97.60;;;;;;4146454;28;19913;-63
2022/09/24 08:20:56;;;;;;;;;;;14.50;98.30;;;;;;4147184;28;19975;-63
2022/09/24 08:23:01;;;;;;;;;;;14.30;98.80;;;;;;4146863;28;19917;-63
2022/09/24 08:25:03;;;;;;;;;;;14.10;99.10;;;;;;4146710;28;20353;-63
2022/09/24 08:27:04;;;;;;;;;;;14.10;99.40;;;;;;4147164;28;19959;-63
2022/09/24 08:29:05;;;;;;;;;;;14.30;99.30;;;;;;4146812;28;19957;-62
2022/09/24 08:31:07;;;;;;;;;;;14.20;99.20;;;;;;4147424;28;19971;-63
2022/09/24 08:33:09;;;;;;;;;;;14.20;99.40;;;;;;4146386;28;19905;-63
2022/09/24 08:35:10;;;;;;;;;;;14.10;99.40;;;;;;4147819;28;19910;-62
2022/09/24 08:37:12;;;;;;;;;;;14.10;99.60;;;;;;4146908;28;19909;-62
2022/09/24 08:39:14;;;;;;;;;;;14.00;99.90;;;;;;4146082;28;19910;-63
2022/09/24 08:41:15;;;;;;;;;;;14.20;99.60;;;;;;4145958;28;20442;-62
2022/09/24 08:43:34;;;;;;;;;;;14.00;99.70;;;;;;4147591;28;19909;-65
2022/09/24 08:48:10;;;;;;;;;;;14.00;99.90;;;;;;4147676;28;20705;-64
2022/09/24 08:50:14;;;;;;;;;;;14.00;99.90;;;;;;4146515;28;19913;-62
2022/09/24 08:52:34;;;;;;;;;;;14.00;99.90;;;;;;4147417;28;20312;-62
2022/09/24 08:54:35;;;;;;;;;;;14.10;99.90;;;;;;4146361;28;19906;-65
2022/09/24 08:56:37;;;;;;;;;;;14.30;99.70;;;;;;4147096;28;19906;-66
2022/09/24 08:58:51;;;;;;;;;;;14.10;99.90;;;;;;4146572;28;19905;-64
2022/09/24 09:00:56;;;;;;;;;;;14.10;99.60;;;;;;4147359;28;19906;-64
2022/09/24 09:03:03;;;;;;;;;;;14.10;99.80;;;;;;4145847;28;19968;-64
2022/09/24 09:05:04;;;;;;;;;;;14.40;99.70;;;;;;4147220;28;19975;-65
2022/09/24 09:07:11;;;;;;;;;;;14.50;99.10;;;;;;4145904;28;19921;-66
2022/09/24 09:09:15;;;;;;;;;;;14.50;99.10;;;;;;4147278;28;19906;-64
2022/09/24 09:11:19;;;;;;;;;;;14.40;99.10;;;;;;4145639;28;19905;-63
2022/09/24 09:13:26;;;;;;;;;;;14.40;99.00;;;;;;4147483;28;19913;-62
2022/09/24 09:15:28;;;;;;;;;;;14.40;98.70;;;;;;4147103;28;19905;-62
2022/09/24 09:17:41;;;;;;;;;;;14.30;98.70;;;;;;4146907;28;19959;-61
2022/09/24 09:19:44;;;;;;;;;;;14.30;98.80;;;;;;4145954;28;19905;-62
2022/09/24 09:21:51;;;;;;;;;;;14.40;99.10;;;;;;4147163;28;20321;-62
2022/09/24 09:23:54;;;;;;;;;;;14.50;98.50;;;;;;4145890;28;19909;-62
2022/09/24 09:25:56;;;;;;;;;;;14.70;98.70;;;;;;4145472;28;19906;-60
2022/09/24 09:27:59;;;;;;;;;;;14.80;98.30;;;;;;4145795;28;19956;-60
2022/09/24 09:30:02;;;;;;;;;;;15.00;97.80;;;;;;4146562;28;19905;-62
2022/09/24 09:32:23;;;;;;;;;;;15.00;97.70;;;;;;4146126;28;19905;-60
2022/09/24 09:34:43;;;;;;;;;;;15.10;97.90;;;;;;4145769;28;19985;-61
2022/09/24 09:36:56;;;;;;;;;;;15.10;97.50;;;;;;4145788;28;19905;-61
2022/09/24 09:38:57;;;;;;;;;;;15.20;97.50;;;;;;4146908;28;19968;-63
2022/09/24 09:41:05;;;;;;;;;;;15.20;97.20;;;;;;4145060;28;19974;-62
2022/09/24 09:43:10;;;;;;;;;;;15.10;97.60;;;;;;4160990;28;19929;-63
2022/09/24 09:45:18;;;;;;;;;;;15.00;97.20;;;;;;4145388;28;19909;-61
2022/09/24 09:47:38;;;;;;;;;;;15.10;97.00;;;;;;4146447;28;19952;-62
2022/09/24 09:49:40;;;;;;;;;;;15.30;97.90;;;;;;4145801;28;20424;-61
2022/09/24 09:51:41;;;;;;;;;;;15.30;96.90;;;;;;4146424;28;19913;-64
2022/09/24 09:53:52;;;;;;;;;;;15.20;96.80;;;;;;4145854;28;20282;-62
2022/09/24 09:55:54;;;;;;;;;;;15.00;96.30;;;;;;4145634;28;19936;-60
2022/09/24 09:58:13;;;;;;;;;;;14.90;96.70;;;;;;4145949;28;19955;-61
2022/09/24 10:00:25;;;;;;;;;;;14.80;97.20;;;;;;4145986;28;19913;-61
2022/09/24 10:02:27;;;;;;;;;;;15.00;97.70;;;;;;4144987;28;20444;-61
2022/09/24 10:04:46;;;;;;;;;;;15.10;97.20;;;;;;4144974;28;19929;-61
2022/09/24 10:06:47;;;;;;;;;;;15.10;97.00;;;;;;4145480;28;19963;-62
2022/09/24 10:08:48;;;;;;;;;;;14.90;97.10;;;;;;4145844;28;20408;-61
2022/09/24 10:10:56;;;;;;;;;;;14.90;97.50;;;;;;4145434;28;19909;-62
2022/09/24 10:13:10;;;;;;;;;;;15.00;97.60;;;;;;4145921;28;20381;-61
2022/09/24 10:15:15;;;;;;;;;;;15.20;97.40;;;;;;4145853;28;20321;-61
2022/09/24 10:17:17;;;;;;;;;;;15.10;97.40;;;;;;4145537;28;19905;-64
2022/09/24 10:19:20;;;;;;;;;;;15.10;97.70;;;;;;4145829;28;19920;-63
2022/09/24 10:21:35;;;;;;;;;;;15.30;98.00;;;;;;4144647;28;19932;-63
2022/09/24 10:23:40;;;;;;;;;;;15.40;97.70;;;;;;4145893;28;19909;-63
2022/09/24 10:25:49;;;;;;;;;;;15.60;97.70;;;;;;4144687;28;19909;-62
2022/09/24 10:30:32;;;;;;;;;;;15.70;97.20;;;;;;4145839;28;19952;-62
2022/09/24 10:30:34;;;;;;;;;;;15.70;97.00;;;;;;4145304;28;20538;-62
2022/09/24 10:32:35;;;;;;;;;;;15.70;97.50;;;;;;4145229;28;19952;-61
2022/09/24 10:34:36;;;;;;;;;;;15.50;97.60;;;;;;4145291;28;19909;-62
2022/09/24 10:36:37;;;;;;;;;;;15.50;97.70;;;;;;4145701;28;19909;-62
2022/09/24 10:38:38;;;;;;;;;;;15.50;97.70;;;;;;4144837;28;20361;-61
2022/09/24 10:40:40;;;;;;;;;;;15.70;98.30;;;;;;4144304;28;20385;-62
2022/09/24 10:42:41;;;;;;;;;;;15.70;98.20;;;;;;4159454;28;20285;-62
2022/09/24 10:44:41;;;;;;;;;;;15.80;98.30;;;;;;4145936;28;19905;-62
2022/09/24 10:46:54;;;;;;;;;;;16.00;97.90;;;;;;4144807;28;19951;-62
2022/09/24 10:48:55;;;;;;;;;;;16.00;97.90;;;;;;4145853;28;19951;-62
2022/09/24 10:51:01;;;;;;;;;;;15.90;97.20;;;;;;4144744;28;19906;-61
2022/09/24 10:53:06;;;;;;;;;;;15.70;97.40;;;;;;4145756;28;20258;-61
2022/09/24 10:55:15;;;;;;;;;;;15.60;97.70;;;;;;4144605;28;19951;-61
2022/09/24 10:57:24;;;;;;;;;;;15.60;97.60;;;;;;4145884;28;20340;-61
2022/09/24 10:59:25;;;;;;;;;;;15.70;97.80;;;;;;4144664;28;20420;-62
2022/09/24 11:01:31;;;;;;;;;;;15.70;97.70;;;;;;4145613;28;19912;-61
2022/09/24 11:03:32;;;;;;;;;;;15.80;96.90;;;;;;4144345;28;20012;-61
2022/09/24 11:05:48;;;;;;;;;;;15.90;97.10;;;;;;4145844;28;19909;-61
2022/09/24 11:08:18;;;;;;;;;;;16.00;96.90;;;;;;4144546;28;20255;-61
2022/09/24 11:10:28;;;;;;;;;;;16.30;96.80;;;;;;4145117;28;19905;-61
2022/09/24 11:12:44;;;;;;;;;;;16.40;96.30;;;;;;4145000;28;20012;-61
2022/09/24 11:15:01;;;;;;;;;;;16.50;96.10;;;;;;4145803;28;19909;-62
2022/09/24 11:17:08;;;;;;;;;;;16.50;95.70;;;;;;4144840;28;19952;-62
2022/09/24 11:19:30;;;;;;;;;;;16.50;96.00;;;;;;4145596;28;20353;-60
2022/09/24 11:21:56;;;;;;;;;;;16.30;96.00;;;;;;4142997;28;20456;-62
2022/09/24 11:24:03;;;;;;;;;;;16.30;96.40;;;;;;4145191;28;19909;-63
2022/09/24 11:26:06;;;;;;;;;;;16.20;96.70;;;;;;4144436;28;19905;-63
2022/09/24 11:28:25;;;;;;;;;;;16.20;96.70;;;;;;4145612;28;19963;-63
2022/09/24 11:30:46;;;;;;;;;;;16.00;97.00;;;;;;4144278;28;19913;-62
2022/09/24 11:33:06;;;;;;;;;;;16.00;97.10;;;;;;4144949;28;19909;-63
2022/09/24 11:35:25;;;;;;;;;;;16.00;97.30;;;;;;4144748;28;19917;-61
2022/09/24 11:37:38;;;;;;;;;;;15.90;97.30;;;;;;4144879;28;19909;-60
2022/09/24 11:40:03;;;;;;;;;;;15.90;97.20;;;;;;4144818;28;19960;-61
2022/09/24 11:42:28;;;;;;;;;;;15.80;97.30;;;;;;4144540;28;19918;-62
2022/09/24 11:44:51;;;;;;;;;;;15.50;97.30;;;;;;4144990;28;20325;-61
2022/09/24 11:47:02;;;;;;;;;;;15.50;97.00;;;;;;4144283;28;19952;-62
2022/09/24 11:49:06;;;;;;;;;;;15.50;97.10;;;;;;4145060;28;19960;-61
2022/09/24 11:51:13;;;;;;;;;;;15.50;97.20;;;;;;4144026;28;20358;-62
2022/09/24 11:53:23;;;;;;;;;;;15.50;97.70;;;;;;4145189;28;19936;-61
2022/09/24 11:55:33;;;;;;;;;;;15.60;97.30;;;;;;4144072;28;19910;-61
2022/09/24 11:57:38;;;;;;;;;;;15.60;96.70;;;;;;4145353;28;19917;-61
2022/09/24 11:59:45;;;;;;;;;;;15.70;96.80;;;;;;4144227;28;19910;-62
2022/09/24 12:01:49;;;;;;;;;;;15.70;96.50;;;;;;4145131;28;20789;-62
2022/09/24 12:03:51;;;;;;;;;;;15.70;96.30;;;;;;4142276;28;20255;-62
2022/09/24 12:06:13;;;;;;;;;;;15.60;96.30;;;;;;4159498;28;20381;-63
2022/09/24 12:08:38;;;;;;;;;;;15.60;96.80;;;;;;4144322;28;19910;-61
2022/09/24 12:10:38;;;;;;;;;;;15.60;96.90;;;;;;4145137;28;19951;-61
2022/09/24 12:12:41;;;;;;;;;;;15.60;96.80;;;;;;4144552;28;19928;-61